Time;durP1;ratioP1;P1;durP2;ratioP2;P2;SDS_P1;SDS_P2;PMS_P1;PMS_P2;Temp;Humidity;BMP_temperature;BMP_pressure;BME280_temperature;BME280_humidity;BME280_pressure;Samples;Min_cycle;Max_cycle;Signal;HPM_P1;HPM_P2
2023/06/07 00:01:43;;;;;;;3.03;2.80;;;;;;;18.59;73.73;99775.25;5053286;28;20689;-66
2023/06/07 00:04:12;;;;;;;2.87;2.67;;;;;;;18.48;74.32;99770.72;5050827;28;20655;-66
2023/06/07 00:06:40;;;;;;;2.93;2.73;;;;;;;18.33;75.35;99768.53;5033588;28;20286;-66
2023/06/07 00:09:08;;;;;;;6.73;3.20;;;;;;;18.14;76.50;99766.25;5033674;28;20688;-65
2023/06/07 00:11:35;;;;;;;10.20;4.20;;;;;;;18.13;77.00;99770.00;5034525;28;20260;-65
2023/06/07 00:14:01;;;;;;;7.13;3.77;;;;;;;18.31;76.76;99777.91;5033471;28;20260;-66
2023/06/07 00:16:28;;;;;;;20.73;5.40;;;;;;;18.25;76.95;99771.59;5033355;28;20316;-65
2023/06/07 00:18:55;;;;;;;7.47;3.37;;;;;;;18.03;77.92;99764.41;5033396;28;20192;-65
2023/06/07 00:21:22;;;;;;;3.03;2.87;;;;;;;18.09;78.48;99763.47;5033249;28;20280;-65
2023/06/07 00:23:50;;;;;;;3.47;3.17;;;;;;;18.16;78.85;99769.50;5033264;28;20195;-65
2023/06/07 00:26:17;;;;;;;4.93;3.20;;;;;;;17.89;79.83;99763.03;5033109;28;20226;-64
2023/06/07 00:28:44;;;;;;;3.93;2.80;;;;;;;18.09;80.10;99768.84;5035440;28;20265;-64
2023/06/07 00:31:10;;;;;;;3.10;2.90;;;;;;;18.25;79.68;99773.50;5052646;28;20223;-64
2023/06/07 00:33:37;;;;;;;3.03;2.83;;;;;;;18.23;79.43;99771.03;5052761;28;20657;-64
2023/06/07 00:36:05;;;;;;;3.77;3.10;;;;;;;18.31;79.19;99777.91;5052858;28;20256;-64
2023/06/07 00:38:31;;;;;;;2.80;2.60;;;;;;;18.22;79.74;99776.66;5050989;28;20593;-64
2023/06/07 00:40:59;;;;;;;6.47;3.27;;;;;;;18.28;79.96;99770.31;5039922;28;20181;-64
2023/06/07 00:43:26;;;;;;;4.60;3.10;;;;;;;18.22;80.36;99771.28;5052858;28;20247;-65
2023/06/07 00:45:53;;;;;;;3.23;3.03;;;;;;;18.24;80.77;99771.81;5052842;28;20291;-66
2023/06/07 00:48:20;;;;;;;5.17;3.27;;;;;;;18.25;80.80;99776.19;5041671;28;20194;-66
2023/06/07 00:50:47;;;;;;;6.20;3.17;;;;;;;18.33;80.75;99771.22;5050677;28;20628;-65
2023/06/07 00:53:14;;;;;;;5.73;3.30;;;;;;;18.41;80.46;99775.44;5052687;28;20198;-66
2023/06/07 00:55:41;;;;;;;3.50;3.27;;;;;;;18.52;80.22;99774.56;5052498;28;20631;-66
2023/06/07 00:58:10;;;;;;;3.50;3.20;;;;;;;18.51;80.47;99772.94;5052605;28;20245;-66
2023/06/07 01:00:38;;;;;;;3.97;3.10;;;;;;;18.58;80.28;99771.75;5036002;28;20197;-65
2023/06/07 01:03:05;;;;;;;3.60;3.40;;;;;;;18.66;80.10;99770.56;5032612;28;20248;-66
2023/06/07 01:05:32;;;;;;;3.63;2.90;;;;;;;18.65;79.93;99760.81;5032079;28;20218;-66
2023/06/07 01:08:00;;;;;;;3.57;3.10;;;;;;;18.69;79.86;99765.50;5039860;28;20323;-65
2023/06/07 01:10:27;;;;;;;3.70;3.40;;;;;;;18.66;80.13;99770.56;5052311;28;20196;-65
2023/06/07 01:12:56;;;;;;;5.60;3.63;;;;;;;18.56;80.73;99765.78;5051870;28;20642;-64
2023/06/07 01:15:26;;;;;;;3.50;3.30;;;;;;;18.53;81.44;99760.06;5052249;28;20209;-64
2023/06/07 01:17:53;;;;;;;3.43;3.10;;;;;;;18.42;81.79;99758.25;5045163;28;20324;-64
2023/06/07 01:20:23;;;;;;;4.33;3.83;;;;;;;18.53;82.07;99754.69;5031977;28;20208;-64
2023/06/07 01:22:52;;;;;;;7.87;3.53;;;;;;;18.63;81.50;99765.66;5031981;28;20199;-64
2023/06/07 01:25:20;;;;;;;5.33;3.63;;;;;;;18.53;82.22;99754.69;5032206;28;20221;-64
2023/06/07 01:27:50;;;;;;;3.90;3.67;;;;;;;18.60;82.11;99749.97;5032360;28;20259;-64
2023/06/07 01:30:17;;;;;;;5.53;3.80;;;;;;;18.51;82.71;99762.19;5031932;28;20255;-65
2023/06/07 01:32:45;;;;;;;4.60;3.70;;;;;;;18.52;83.29;99758.44;5032081;28;20252;-64
2023/06/07 01:35:13;;;;;;;5.60;3.87;;;;;;;18.61;83.02;99762.38;5032147;28;20228;-64
2023/06/07 01:37:41;;;;;;;4.10;3.80;;;;;;;18.55;82.79;99757.97;5049064;28;20203;-64
2023/06/07 01:40:09;;;;;;;4.73;4.40;;;;;;;18.50;83.23;99761.34;5052038;28;20628;-64
2023/06/07 01:42:39;;;;;;;7.87;4.33;;;;;;;18.51;83.88;99762.19;5051662;28;20199;-64
2023/06/07 01:45:06;;;;;;;4.07;3.57;;;;;;;18.43;84.10;99759.88;5051534;28;20269;-65
2023/06/07 01:47:34;;;;;;;6.40;4.60;;;;;;;18.30;84.92;99754.75;5048736;28;20246;-66
2023/06/07 01:50:01;;;;;;;4.67;4.07;;;;;;;18.33;84.89;99755.09;5031993;28;20279;-66
2023/06/07 01:52:28;;;;;;;8.73;4.63;;;;;;;18.22;84.73;99752.44;5031613;28;20197;-66
2023/06/07 01:54:55;;;;;;;10.50;7.13;;;;;;;18.06;86.36;99748.63;5031882;28;20209;-66
2023/06/07 01:57:30;;;;;;;6.33;4.83;;;;;;;18.02;86.58;99752.84;5031835;28;20222;-65
2023/06/07 02:00:13;;;;;;;7.83;5.93;;;;;;;17.76;88.27;99757.94;5035446;28;20561;-65
2023/06/07 02:02:49;;;;;;;10.67;9.57;;;;;;;17.79;88.97;99760.94;5051478;28;20657;-66
2023/06/07 02:05:18;;;;;;;7.90;5.50;;;;;;;17.85;89.43;99761.88;5040249;28;20205;-66
2023/06/07 02:07:49;;;;;;;6.40;4.90;;;;;;;17.81;89.69;99752.66;5031355;28;20194;-65
2023/06/07 02:10:21;;;;;;;15.67;12.60;;;;;;;17.73;91.16;99766.47;5051564;28;20649;-64
2023/06/07 02:12:50;;;;;;;6.50;5.80;;;;;;;17.69;92.14;99762.59;5051749;28;20189;-64
2023/06/07 02:15:19;;;;;;;9.23;7.30;;;;;;;17.63;92.87;99761.66;5051329;28;20288;-64
2023/06/07 02:17:57;;;;;;;8.07;6.70;;;;;;;17.68;93.39;99760.97;5034516;28;20661;-65
2023/06/07 02:20:24;;;;;;;8.83;6.87;;;;;;;17.75;93.52;99761.66;5012145;28;20222;-65
2023/06/07 02:22:51;;;;;;;8.10;7.37;;;;;;;17.82;92.83;99763.19;5013203;28;20204;-65
2023/06/07 02:25:18;;;;;;;10.07;7.77;;;;;;;17.87;92.30;99759.75;5015422;28;20713;-65
2023/06/07 02:27:45;;;;;;;23.67;7.87;;;;;;;17.86;92.88;99758.97;5015388;28;20669;-66
2023/06/07 02:30:12;;;;;;;9.37;8.37;;;;;;;17.88;92.36;99761.41;5018351;28;20273;-66
2023/06/07 02:32:40;;;;;;;9.23;8.17;;;;;;;17.93;92.88;99764.22;5054964;28;20658;-65
2023/06/07 02:35:08;;;;;;;11.63;9.73;;;;;;;17.98;91.58;99757.06;5054915;28;20220;-65
2023/06/07 02:37:35;;;;;;;13.00;10.43;;;;;;;18.03;91.82;99759.03;5055002;28;20616;-65
2023/06/07 02:40:04;;;;;;;13.70;11.27;;;;;;;18.12;91.58;99768.34;5055460;28;20701;-65
2023/06/07 02:42:31;;;;;;;12.43;10.17;;;;;;;18.23;90.54;99759.44;5051199;28;20193;-65
2023/06/07 02:44:58;;;;;;;10.97;9.83;;;;;;;18.17;90.77;99760.41;5035094;28;20190;-65
2023/06/07 02:47:25;;;;;;;13.93;10.03;;;;;;;18.19;90.92;99763.66;5035010;28;20239;-65
2023/06/07 02:49:53;;;;;;;12.97;8.97;;;;;;;18.19;91.18;99752.91;5034745;28;20701;-64
2023/06/07 02:52:20;;;;;;;15.57;10.83;;;;;;;17.87;92.06;99767.81;5049025;28;20197;-65
2023/06/07 02:54:46;;;;;;;16.50;10.37;;;;;;;17.84;92.61;99760.25;5055005;28;20192;-64
2023/06/07 02:57:13;;;;;;;16.00;10.37;;;;;;;18.00;92.48;99754.94;5054757;28;20632;-65
2023/06/07 02:59:41;;;;;;;11.33;8.83;;;;;;;18.17;92.11;99755.03;5054851;28;20258;-65
2023/06/07 03:02:07;;;;;;;14.97;11.23;;;;;;;18.25;90.87;99760.03;5041269;28;20201;-65
2023/06/07 03:04:34;;;;;;;17.10;11.23;;;;;;;18.32;90.90;99763.38;5034401;28;20199;-64
2023/06/07 03:07:02;;;;;;;15.33;11.20;;;;;;;18.42;89.88;99763.63;5034644;28;20226;-64
2023/06/07 03:09:29;;;;;;;16.20;11.20;;;;;;;18.35;89.26;99760.25;5038695;28;20570;-64
2023/06/07 03:11:55;;;;;;;14.10;9.90;;;;;;;18.33;89.53;99756.97;5054208;28;20698;-64
2023/06/07 03:14:23;;;;;;;16.23;11.47;;;;;;;18.47;90.22;99750.28;5054538;28;20260;-65
2023/06/07 03:16:50;;;;;;;13.73;10.57;;;;;;;18.62;89.61;99755.94;5054573;28;20261;-65
2023/06/07 03:19:17;;;;;;;12.43;10.57;;;;;;;18.68;88.24;99752.28;5051309;28;20270;-65
2023/06/07 03:21:44;;;;;;;14.83;10.93;;;;;;;18.76;87.31;99755.41;5034394;28;20189;-66
2023/06/07 03:24:12;;;;;;;9.40;8.43;;;;;;;18.90;87.55;99764.78;5034089;28;20192;-68
2023/06/07 03:26:39;;;;;;;10.20;9.13;;;;;;;19.05;86.48;99764.22;5033960;28;20604;-69
2023/06/07 03:29:06;;;;;;;11.20;8.77;;;;;;;19.14;85.28;99757.38;5034239;28;20580;-68
2023/06/07 03:31:33;;;;;;;12.57;9.50;;;;;;;19.26;83.64;99760.84;5036314;28;20683;-71
2023/06/07 03:34:00;;;;;;;14.50;10.90;;;;;;;19.35;83.92;99762.88;5053259;28;20196;-72
2023/06/07 03:36:28;;;;;;;14.30;8.70;;;;;;;19.47;81.80;99770.88;5054160;28;20195;-72
2023/06/07 03:38:55;;;;;;;11.10;8.93;;;;;;;19.41;82.63;99758.38;5053924;28;20647;-71
2023/06/07 03:41:23;;;;;;;15.30;10.00;;;;;;;19.39;82.30;99766.72;5053647;28;20558;-72
2023/06/07 03:43:50;;;;;;;12.77;9.50;;;;;;;19.48;81.77;99767.13;5048334;28;20248;-72
2023/06/07 03:46:17;;;;;;;10.93;9.90;;;;;;;19.44;81.68;99763.28;5033558;28;20274;-72
2023/06/07 03:48:44;;;;;;;14.03;10.13;;;;;;;19.50;81.47;99773.06;5033497;28;20201;-72
2023/06/07 03:51:10;;;;;;;11.83;10.33;;;;;;;19.65;81.45;99767.91;5033756;28;20263;-70
2023/06/07 03:53:37;;;;;;;13.23;9.83;;;;;;;19.60;80.29;99767.84;5048084;28;20243;-72
2023/06/07 03:56:05;;;;;;;15.00;9.63;;;;;;;19.74;81.59;99769.13;5053368;28;20619;-74
2023/06/07 03:58:34;;;;;;;12.37;9.57;;;;;;;19.97;79.71;99767.00;5053241;28;20622;-73
2023/06/07 04:01:00;;;;;;;14.93;9.70;;;;;;;20.18;79.57;99770.81;5053198;28;20286;-75
2023/06/07 04:03:28;;;;;;;14.53;9.53;;;;;;;20.60;77.86;99779.94;5053163;28;20540;-72
2023/06/07 04:05:54;;;;;;;18.67;10.57;;;;;;;20.91;74.95;99781.94;5034372;28;20217;-72
2023/06/07 04:08:21;;;;;;;12.90;10.77;;;;;;;21.48;75.30;99769.41;5033056;28;20216;-70
2023/06/07 04:10:48;;;;;;;13.13;10.67;;;;;;;22.32;71.21;99787.22;5033124;28;20190;-69
2023/06/07 04:13:15;;;;;;;11.60;10.40;;;;;;;22.59;69.25;99790.63;5032961;28;20189;-65
2023/06/07 04:15:43;;;;;;;12.17;9.30;;;;;;;23.34;67.45;99798.06;5033510;28;20385;-64
2023/06/07 04:18:10;;;;;;;11.63;10.43;;;;;;;23.85;63.02;99796.94;5049485;28;20685;-65
2023/06/07 04:20:36;;;;;;;15.90;10.63;;;;;;;24.21;61.98;99796.56;5053194;28;20193;-67
2023/06/07 04:23:03;;;;;;;22.27;10.77;;;;;;;24.84;58.94;99803.88;5053014;28;20190;-69
2023/06/07 04:25:33;;;;;;;10.73;9.73;;;;;;;25.27;58.57;99796.00;5052702;28;20256;-74
2023/06/07 04:28:00;;;;;;;9.37;7.10;;;;;;;26.27;55.43;99808.66;5053024;28;20187;-70
2023/06/07 04:30:34;;;;;;;8.27;6.20;;;;;;;27.37;52.49;99816.16;5033341;28;20201;-72
2023/06/07 04:33:04;;;;;;;10.17;9.03;;;;;;;28.56;47.50;99808.75;5032586;28;20189;-71
2023/06/07 04:35:33;;;;;;;8.77;7.90;;;;;;;28.74;47.29;99800.41;5032917;28;20549;-67
2023/06/07 04:38:01;;;;;;;8.60;7.80;;;;;;;29.60;44.14;99793.72;5032300;28;20677;-69
2023/06/07 04:40:28;;;;;;;10.37;9.30;;;;;;;30.23;42.71;99796.97;5034162;28;20185;-70
2023/06/07 04:43:04;;;;;;;10.20;7.93;;;;;;;30.79;40.98;99785.97;5052362;28;20283;-70
2023/06/07 04:45:32;;;;;;;10.13;7.67;;;;;;;31.64;38.54;99777.69;5052456;28;20211;-70
2023/06/07 04:47:59;;;;;;;7.33;6.73;;;;;;;32.26;37.89;99783.47;5050438;28;20814;-66
2023/06/07 04:50:29;;;;;;;12.40;7.23;;;;;;;32.96;36.13;99798.13;5030456;28;20335;-70
2023/06/07 04:53:00;;;;;;;12.33;8.83;;;;;;;32.88;34.64;99785.25;5030958;28;20300;-71
2023/06/07 04:55:29;;;;;;;9.17;8.40;;;;;;;33.01;34.26;99789.69;5030883;28;20259;-72
2023/06/07 04:57:56;;;;;;;9.07;8.17;;;;;;;33.23;35.11;99797.56;5030938;28;20599;-68
2023/06/07 05:00:24;;;;;;;9.43;7.53;;;;;;;33.74;34.13;99776.97;5031826;28;20876;-67
2023/06/07 05:02:52;;;;;;;8.73;7.47;;;;;;;34.12;33.03;99794.06;5050455;28;20201;-68
2023/06/07 05:05:19;;;;;;;8.82;8.10;;;;;;;34.23;32.97;99788.88;5044088;28;20204;-72
2023/06/07 05:07:49;;;;;;;8.80;7.78;;;;;;;34.07;32.71;99797.06;5033405;28;20249;-69
2023/06/07 05:10:16;;;;;;;9.80;7.87;;;;;;;33.29;33.52;99790.72;5028522;28;20649;-66
2023/06/07 05:12:43;;;;;;;8.37;7.67;;;;;;;32.33;35.74;99790.09;5047589;28;20200;-65
2023/06/07 05:15:10;;;;;;;8.70;7.47;;;;;;;32.71;35.51;99790.81;5051233;28;20197;-66
2023/06/07 05:17:38;;;;;;;8.13;7.43;;;;;;;32.72;35.37;99786.97;5037149;28;20284;-66
2023/06/07 05:20:10;;;;;;;10.57;8.33;;;;;;;32.24;35.83;99789.31;5038728;28;20279;-65
2023/06/07 05:22:38;;;;;;;12.30;9.07;;;;;;;31.62;36.41;99785.47;5050699;28;20223;-69
2023/06/07 05:25:08;;;;;;;11.33;8.57;;;;;;;31.75;37.22;99789.16;5050969;28;20306;-76
2023/06/07 05:27:36;;;;;;;8.60;7.67;;;;;;;32.36;36.83;99783.94;5051222;28;20211;-74
2023/06/07 05:30:04;;;;;;;9.47;6.77;;;;;;;32.95;35.13;99780.00;5032120;28;20200;-75
2023/06/07 05:32:31;;;;;;;9.13;6.83;;;;;;;32.07;35.50;99783.09;5029331;28;20197;-72
2023/06/07 05:34:58;;;;;;;8.97;7.27;;;;;;;31.56;36.69;99786.78;5029495;28;20197;-75
2023/06/07 05:37:25;;;;;;;8.53;7.10;;;;;;;31.14;38.25;99789.53;5029472;28;20228;-70
2023/06/07 05:39:52;;;;;;;7.17;6.37;;;;;;;30.37;39.88;99778.47;5029988;28;20700;-68
2023/06/07 05:42:20;;;;;;;7.50;6.70;;;;;;;30.43;39.82;99779.94;5037065;28;20278;-68
2023/06/07 05:44:48;;;;;;;8.20;6.97;;;;;;;30.15;40.31;99784.03;5046119;28;20196;-68
2023/06/07 05:47:15;;;;;;;8.27;7.53;;;;;;;30.29;40.69;99781.19;5027794;28;20221;-70
2023/06/07 05:49:44;;;;;;;8.07;7.47;;;;;;;29.89;40.71;99774.91;5027381;28;20212;-70
2023/06/07 05:52:13;;;;;;;9.57;7.40;;;;;;;30.14;40.19;99787.91;5019870;28;20198;-72
2023/06/07 05:54:41;;;;;;;11.73;7.23;;;;;;;29.70;41.73;99776.22;5037440;28;20219;-70
2023/06/07 05:57:08;;;;;;;9.13;8.17;;;;;;;29.52;41.54;99785.44;5025873;28;20198;-70
2023/06/07 05:59:36;;;;;;;7.67;7.07;;;;;;;29.39;41.40;99778.91;5034732;28;20189;-68
2023/06/07 06:02:03;;;;;;;7.30;6.80;;;;;;;29.12;42.74;99781.78;5014583;28;20190;-69
2023/06/07 06:04:29;;;;;;;8.20;7.17;;;;;;;29.15;42.40;99783.88;5018755;28;20201;-67
2023/06/07 06:06:56;;;;;;;12.87;7.57;;;;;;;29.24;42.22;99787.53;5039439;28;20221;-69
2023/06/07 06:09:23;;;;;;;7.07;6.47;;;;;;;29.71;41.75;99794.28;5022206;28;20224;-70
2023/06/07 06:11:51;;;;;;;7.80;7.03;;;;;;;29.45;41.09;99788.63;5012634;28;20201;-69
2023/06/07 06:14:20;;;;;;;10.00;6.87;;;;;;;29.38;42.37;99784.69;5013416;28;20689;-69
2023/06/07 06:16:48;;;;;;;7.70;7.20;;;;;;;29.68;40.73;99786.72;5014915;28;20205;-69
2023/06/07 06:19:15;;;;;;;6.67;6.23;;;;;;;29.89;40.87;99787.78;5032949;28;20201;-68
2023/06/07 06:21:42;;;;;;;8.43;6.50;;;;;;;30.06;40.22;99780.44;5033357;28;20246;-69
2023/06/07 06:24:09;;;;;;;7.93;6.47;;;;;;;30.52;39.83;99785.44;5034079;28;20634;-69
2023/06/07 06:26:36;;;;;;;6.90;5.93;;;;;;;30.81;38.30;99786.47;5021894;28;20599;-69
2023/06/07 06:29:02;;;;;;;8.80;5.80;;;;;;;30.72;38.50;99782.94;5014109;28;20190;-69
2023/06/07 06:31:29;;;;;;;7.60;6.83;;;;;;;30.75;38.33;99785.03;5014022;28;20194;-69
2023/06/07 06:33:57;;;;;;;9.50;6.33;;;;;;;30.99;38.00;99790.84;5015629;28;20213;-71
2023/06/07 06:36:24;;;;;;;7.73;6.20;;;;;;;31.08;37.45;99788.91;5033575;28;20201;-70
2023/06/07 06:38:50;;;;;;;11.17;6.37;;;;;;;31.17;37.31;99789.72;5031516;28;20225;-69
2023/06/07 06:41:17;;;;;;;7.63;5.77;;;;;;;31.08;37.61;99780.69;5034090;28;20225;-68
2023/06/07 06:43:44;;;;;;;6.03;5.63;;;;;;;31.35;37.18;99791.34;5032785;28;20197;-67
2023/06/07 06:46:11;;;;;;;5.90;5.50;;;;;;;31.71;36.25;99786.25;5036497;28;20189;-68
2023/06/07 06:48:38;;;;;;;6.97;6.37;;;;;;;31.60;34.96;99798.72;5053542;28;20227;-67
2023/06/07 06:51:06;;;;;;;9.27;6.47;;;;;;;31.01;37.42;99791.34;5046698;28;20209;-66
2023/06/07 06:53:33;;;;;;;12.03;6.70;;;;;;;31.22;36.65;99784.06;5010684;28;20217;-70
2023/06/07 06:56:00;;;;;;;6.43;5.70;;;;;;;31.09;36.81;99787.78;5033491;28;20239;-67
2023/06/07 06:58:26;;;;;;;7.03;6.17;;;;;;;30.54;38.53;99781.22;5032666;28;20262;-69
2023/06/07 07:00:53;;;;;;;7.30;6.60;;;;;;;30.02;38.29;99768.50;5032417;28;20205;-70
2023/06/07 07:03:21;;;;;;;8.00;6.57;;;;;;;29.99;38.69;99762.81;5033455;28;20185;-71
2023/06/07 07:05:47;;;;;;;7.97;6.40;;;;;;;29.64;40.34;99772.81;5032909;28;20193;-72
2023/06/07 07:08:17;;;;;;;6.00;5.50;;;;;;;29.82;40.12;99769.06;5032526;28;20213;-73
2023/06/07 07:10:44;;;;;;;8.13;6.13;;;;;;;29.82;39.95;99769.06;5028835;28;20251;-71
2023/06/07 07:13:10;;;;;;;6.50;5.93;;;;;;;29.73;40.27;99781.09;5032394;28;20751;-70
2023/06/07 07:15:37;;;;;;;6.60;5.93;;;;;;;29.81;39.41;99767.44;5033598;28;20197;-69
2023/06/07 07:18:04;;;;;;;6.80;6.30;;;;;;;29.97;38.90;99763.13;5032473;28;20243;-70
2023/06/07 07:20:31;;;;;;;6.03;5.53;;;;;;;30.09;39.30;99779.00;5032736;28;20197;-69
2023/06/07 07:22:59;;;;;;;6.30;5.83;;;;;;;30.26;38.98;99779.09;5031179;28;20198;-76
2023/06/07 07:25:27;;;;;;;6.10;5.57;;;;;;;30.67;37.69;99772.09;5032103;28;20537;-76
2023/06/07 07:27:54;;;;;;;6.40;5.23;;;;;;;30.34;39.29;99770.06;5033292;28;20275;-78
2023/06/07 07:30:20;;;;;;;7.03;6.33;;;;;;;30.61;37.48;99769.78;5027828;28;20255;-75
2023/06/07 07:32:47;;;;;;;9.93;5.97;;;;;;;30.32;38.80;99767.66;5030959;28;20197;-77
2023/06/07 07:35:14;;;;;;;5.70;5.33;;;;;;;30.54;38.70;99764.78;5031653;28;20201;-81
2023/06/07 07:37:41;;;;;;;5.73;5.23;;;;;;;31.00;37.94;99772.44;5030536;28;20276;-81
2023/06/07 07:40:09;;;;;;;6.07;5.37;;;;;;;31.26;36.60;99771.31;5031231;28;20221;-78
2023/06/07 07:42:38;;;;;;;6.77;5.40;;;;;;;31.32;36.91;99770.00;5032293;28;20216;-76
2023/06/07 07:45:06;;;;;;;5.97;5.37;;;;;;;31.25;36.43;99780.69;5033101;28;20263;-82
2023/06/07 07:47:33;;;;;;;5.77;5.30;;;;;;;31.57;36.47;99769.19;5028272;28;20915;-77
2023/06/07 07:50:00;;;;;;;16.97;6.60;;;;;;;31.08;36.69;99772.44;5031193;28;20233;-78
2023/06/07 07:52:27;;;;;;;17.37;6.70;;;;;;;30.72;37.52;99765.66;5030931;28;20200;-80
2023/06/07 07:54:53;;;;;;;7.70;6.00;;;;;;;30.49;38.40;99767.69;5026820;28;20619;-77
2023/06/07 07:57:20;;;;;;;6.03;5.60;;;;;;;30.64;38.11;99769.16;5031145;28;20194;-77
2023/06/07 07:59:48;;;;;;;8.40;6.17;;;;;;;30.81;36.77;99781.00;5031316;28;20251;-78
2023/06/07 08:02:15;;;;;;;10.07;6.73;;;;;;;30.52;37.10;99760.75;5031214;28;20197;-76
2023/06/07 08:04:42;;;;;;;7.40;6.80;;;;;;;29.82;39.68;99760.84;5030300;28;20673;-81
2023/06/07 08:07:08;;;;;;;7.10;6.40;;;;;;;29.33;40.58;99758.28;5033267;28;20295;-78
2023/06/07 08:09:35;;;;;;;6.83;6.23;;;;;;;29.26;41.37;99751.63;5030188;28;20197;-76
2023/06/07 08:12:02;;;;;;;10.20;6.40;;;;;;;29.47;41.32;99753.53;5058722;28;20195;-80
2023/06/07 08:14:28;;;;;;;11.87;7.03;;;;;;;28.90;41.99;99752.44;5030342;28;20249;-76
2023/06/07 08:16:56;;;;;;;10.87;7.00;;;;;;;28.85;42.81;99754.50;5030701;28;20204;-77
2023/06/07 08:19:23;;;;;;;13.40;6.70;;;;;;;29.22;41.32;99753.38;5030893;28;20209;-75
2023/06/07 08:21:50;;;;;;;6.97;6.33;;;;;;;29.25;41.09;99753.56;5030009;28;20288;-77
2023/06/07 08:24:17;;;;;;;7.80;6.83;;;;;;;29.39;41.24;99754.28;5030511;28;20202;-76
2023/06/07 08:26:45;;;;;;;6.23;5.77;;;;;;;29.67;40.70;99750.28;5029477;28;20272;-75
2023/06/07 08:29:12;;;;;;;7.27;5.60;;;;;;;29.82;40.55;99747.13;5030712;28;20656;-78
2023/06/07 08:31:43;;;;;;;6.63;6.07;;;;;;;29.58;39.83;99751.34;5031966;28;20209;-77
2023/06/07 08:34:11;;;;;;;7.63;6.07;;;;;;;29.44;41.08;99756.91;5030961;28;20239;-78
2023/06/07 08:36:39;;;;;;;5.93;5.33;;;;;;;29.52;40.73;99750.63;5031211;28;20236;-76
2023/06/07 08:39:06;;;;;;;9.23;5.90;;;;;;;29.62;40.79;99755.06;5030757;28;20221;-77
2023/06/07 08:41:32;;;;;;;7.13;6.43;;;;;;;29.71;40.64;99751.25;5034867;28;20189;-73
2023/06/07 08:43:59;;;;;;;6.57;5.97;;;;;;;29.51;40.53;99746.28;5031077;28;20648;-71
2023/06/07 08:46:30;;;;;;;16.47;6.40;;;;;;;29.28;42.17;99748.25;5031210;28;20267;-85
2023/06/07 08:48:59;;;;;;;6.87;5.33;;;;;;;29.38;41.13;99749.09;5031066;28;20221;-87
2023/06/07 08:51:28;;;;;;;7.23;6.07;;;;;;;29.54;41.14;99753.88;5031765;28;20279;-78
2023/06/07 08:53:56;;;;;;;9.93;6.27;;;;;;;29.23;40.53;99745.66;5029828;28;20693;-75
2023/06/07 08:56:23;;;;;;;6.43;5.80;;;;;;;28.94;41.21;99733.47;5031837;28;20263;-73
2023/06/07 08:58:51;;;;;;;7.30;6.60;;;;;;;28.86;42.56;99740.50;5034688;28;20255;-78
2023/06/07 09:01:20;;;;;;;8.63;5.83;;;;;;;29.07;42.36;99735.38;5029075;28;20205;-73
2023/06/07 09:03:52;;;;;;;7.90;5.43;;;;;;;29.29;41.76;99729.91;5027585;28;20197;-76
2023/06/07 09:06:19;;;;;;;10.10;5.27;;;;;;;29.07;42.08;99735.38;5028390;28;20643;-79
2023/06/07 09:08:48;;;;;;;5.70;5.30;;;;;;;29.45;40.94;99739.34;5029005;28;20225;-82
2023/06/07 09:11:14;;;;;;;7.00;5.83;;;;;;;29.55;39.43;99739.06;5029726;28;20263;-84
2023/06/07 09:13:41;;;;;;;6.07;5.40;;;;;;;29.70;39.86;99727.75;5030877;28;20197;-82
2023/06/07 09:16:10;;;;;;;5.27;4.97;;;;;;;29.82;39.72;99730.69;5030275;28;20258;-82
2023/06/07 09:18:43;;;;;;;7.17;5.63;;;;;;;29.81;40.34;99726.34;5030076;28;20662;-80
2023/06/07 09:21:20;;;;;;;6.27;5.63;;;;;;;29.91;40.03;99717.03;5029608;28;20285;-82
2023/06/07 09:23:48;;;;;;;6.07;4.90;;;;;;;29.92;38.44;99722.19;5030319;28;20196;-75
2023/06/07 09:26:15;;;;;;;4.20;3.97;;;;;;;29.81;37.76;99718.13;5030656;28;20332;-85
2023/06/07 09:28:42;;;;;;;4.90;4.43;;;;;;;29.86;38.76;99720.72;5042851;28;20370;-77
2023/06/07 09:31:09;;;;;;;5.23;4.80;;;;;;;29.71;38.81;99721.13;5050601;28;20196;-78
2023/06/07 09:33:36;;;;;;;6.63;5.47;;;;;;;29.67;39.13;99711.94;5035709;28;20193;-78
2023/06/07 09:36:04;;;;;;;14.10;5.77;;;;;;;29.66;39.79;99704.03;5030715;28;20223;-75
2023/06/07 09:38:31;;;;;;;5.67;5.17;;;;;;;29.92;40.03;99718.66;5030098;28;20233;-74
2023/06/07 09:41:00;;;;;;;5.57;4.90;;;;;;;29.89;38.94;99717.38;5039697;28;20189;-75
2023/06/07 09:43:27;;;;;;;5.70;5.10;;;;;;;30.08;38.47;99720.63;5011871;28;20234;-76
2023/06/07 09:45:55;;;;;;;6.30;5.37;;;;;;;30.28;37.50;99711.84;5026499;28;20747;-75
2023/06/07 09:48:22;;;;;;;21.20;5.80;;;;;;;30.43;37.19;99713.31;5040737;28;20216;-78
2023/06/07 09:50:59;;;;;;;6.73;5.00;;;;;;;30.47;37.66;99715.09;5047315;28;20189;-78
2023/06/07 09:53:27;;;;;;;4.53;4.23;;;;;;;30.57;37.05;99714.78;5047852;28;20195;-75
2023/06/07 09:55:54;;;;;;;4.90;4.40;;;;;;;30.65;36.90;99705.75;5051291;28;20676;-76
2023/06/07 09:58:23;;;;;;;4.70;4.13;;;;;;;30.65;36.07;99705.75;5051545;28;20358;-76
2023/06/07 10:00:52;;;;;;;8.43;4.37;;;;;;;30.70;35.68;99702.88;5051252;28;20189;-76
2023/06/07 10:03:19;;;;;;;6.37;4.60;;;;;;;30.32;37.17;99712.00;5051864;28;20193;-76
2023/06/07 10:05:46;;;;;;;4.77;4.30;;;;;;;30.44;37.06;99704.78;5035767;28;20194;-75
2023/06/07 10:08:15;;;;;;;8.07;4.33;;;;;;;30.47;36.35;99706.88;5031658;28;20224;-76
2023/06/07 10:10:43;;;;;;;6.27;4.70;;;;;;;30.53;36.90;99697.34;5031539;28;20239;-77
2023/06/07 10:13:12;;;;;;;5.20;4.30;;;;;;;30.45;36.43;99694.63;5031299;28;20196;-77
2023/06/07 10:15:43;;;;;;;6.77;4.20;;;;;;;30.02;36.72;99691.78;5031743;28;20197;-77
2023/06/07 10:18:16;;;;;;;7.07;3.87;;;;;;;30.18;35.37;99692.97;5031670;28;20279;-77
2023/06/07 10:20:49;;;;;;;5.80;3.77;;;;;;;30.04;36.23;99688.72;5031790;28;20192;-76
2023/06/07 10:23:26;;;;;;;6.50;3.90;;;;;;;30.11;36.25;99694.50;5031284;28;20653;-77
2023/06/07 10:25:59;;;;;;;5.57;4.07;;;;;;;30.14;35.57;99678.28;5031810;28;20185;-77
2023/06/07 10:28:33;;;;;;;4.93;3.27;;;;;;;30.17;36.02;99680.38;5031258;28;20759;-79
2023/06/07 10:31:05;;;;;;;8.93;3.90;;;;;;;30.33;35.73;99687.00;5031505;28;20239;-77
2023/06/07 10:33:33;;;;;;;4.93;4.07;;;;;;;30.12;36.36;99677.75;5031730;28;20292;-78
2023/06/07 10:36:00;;;;;;;4.40;4.00;;;;;;;29.98;36.46;99674.34;5031631;28;20189;-78
2023/06/07 10:38:29;;;;;;;3.97;3.67;;;;;;;29.92;36.01;99683.81;5031417;28;20233;-79
2023/06/07 10:40:58;;;;;;;4.33;3.30;;;;;;;29.96;35.65;99682.06;5031675;28;20189;-78
2023/06/07 10:43:28;;;;;;;5.10;3.60;;;;;;;30.07;36.20;99674.34;5031456;28;20252;-78
2023/06/07 10:46:24;;;;;;;4.23;3.67;;;;;;;30.06;35.94;99670.00;5034359;28;20267;-80
2023/06/07 10:48:51;;;;;;;4.43;3.90;;;;;;;30.17;35.53;99677.63;5035213;28;20637;-80
2023/06/07 10:51:19;;;;;;;3.83;3.57;;;;;;;30.20;34.69;99677.00;5034914;28;20680;-78
2023/06/07 10:53:50;;;;;;;3.93;3.60;;;;;;;29.94;35.18;99681.59;5035015;28;20645;-78
2023/06/07 10:56:30;;;;;;;3.97;3.53;;;;;;;30.04;35.09;99675.81;5034665;28;20202;-81
2023/06/07 10:58:59;;;;;;;4.40;3.67;;;;;;;30.12;34.19;99671.44;5034596;28;20201;-81
2023/06/07 11:01:27;;;;;;;5.40;3.97;;;;;;;29.93;35.61;99669.00;5035102;28;20224;-79
2023/06/07 11:03:54;;;;;;;3.63;3.17;;;;;;;30.05;34.35;99668.41;5034695;28;20267;-79
2023/06/07 11:06:21;;;;;;;5.37;3.30;;;;;;;30.08;35.04;99663.06;5034888;28;20193;-79
2023/06/07 11:08:48;;;;;;;8.83;4.03;;;;;;;30.05;35.58;99658.22;5034283;28;20294;-79
2023/06/07 11:11:48;;;;;;;7.03;3.70;;;;;;;29.64;36.65;99655.06;5034278;28;20296;-78
2023/06/07 11:14:14;;;;;;;4.17;3.73;;;;;;;29.58;36.15;99650.03;5019810;28;20268;-76
2023/06/07 11:16:43;;;;;;;4.07;3.40;;;;;;;29.49;36.20;99650.00;5026705;28;20193;-74
2023/06/07 11:19:12;;;;;;;3.83;3.47;;;;;;;29.53;35.50;99645.50;5032341;28;20193;-76
2023/06/07 11:22:04;;;;;;;5.60;3.50;;;;;;;29.77;35.47;99640.47;5032387;28;20206;-75
2023/06/07 11:24:32;;;;;;;4.23;3.93;;;;;;;29.97;36.32;99650.78;5015814;28;20204;-73
2023/06/07 11:26:59;;;;;;;5.80;3.37;;;;;;;29.97;36.73;99633.56;5013754;28;20193;-80
2023/06/07 11:29:25;;;;;;;6.47;3.50;;;;;;;30.06;36.51;99626.97;5012904;28;20276;-79
2023/06/07 11:31:59;;;;;;;3.33;3.00;;;;;;;29.82;37.12;99625.78;5021198;28;20254;-81
2023/06/07 11:34:29;;;;;;;5.67;3.17;;;;;;;29.57;37.81;99618.28;5033285;28;20228;-80